KDYR  Dyersburg Regional Airport

Add Bookmark

Dyersburg, Tennessee, United States

Status Useage
Operational Public
Latitude Longitude
35° 59' 52" N 89° 24' 23" W
35.997972 -89.406583
Local (DST -5) UTC (GMT -6)
Nov 24, 2014 06:18 Nov 25, 2014 00:18
Sunrise-Sunset Local UTC
Begin Civil Twilight 06:14 12:14
Sunrise 06:42 12:42
Sunset 04:46 22:46
End Civil Twilight 05:14 23:14

Current Weather

METAR Observed VFR
KDYR 242355Z 21003KT 10SM CLR 09/M03 A2997 Mon, Nov 24, 2014 @ 23:55 UTC
(23 Minutes ago)
Visual Flight Rules
Wind Visibility Clouds Conditions
210° at 3 knots (3 mph) 10 statute miles
  • Clear skies
  • No significant weather
Temperatures Readings Precipitation
Current Temp 9°C (48°F)
Low Temp 9°C (48°F)
High Temp 13°C (55°F)
Dewpoint -3°C (27°F)
Humidity 43%
Altimeter 29.97"Hg
Sea Level Pressure 1015mb
Field Elevation 337'
None Recorded

Additional weather within a 50nm radius of KDYR

Map ICAO Location
KHKA 20.9nm W (261°)
KBYH 26.2nm W (266°)
KUCY 30.7nm N (042°)
KMKL 33.8nm S (135°)
KNQA 44.6nm S (211°)

24 Hour Weather History

Loading
-

24 Hour Weather Graphs

Loading
-

CheckWX.com is intended as a tool to help pilots better visualize weather data. It is not intended as a substitute for an official weather briefing obtained from a Flight Service Station. CheckWX.com does not meet the FAA requirements for an official pre-flight weather briefing. Therefore, it's important that pilots still call and obtain an official FSS pre-flight weather briefing.